sensor_id;sensor_type;location;lat;lon;timestamp;pressure;altitude;pressure_sealevel;temperature;humidity
3206;BME280;1615;53.602;11.418;2023-02-28T00:00:21;102817.72;;;2.12;100.00
3206;BME280;1615;53.602;11.418;2023-02-28T00:02:47;102897.47;;;1.87;100.00
3206;BME280;1615;53.602;11.418;2023-02-28T00:05:15;102817.34;;;2.01;100.00
3206;BME280;1615;53.602;11.418;2023-02-28T00:07:41;102814.19;;;1.97;100.00
3206;BME280;1615;53.602;11.418;2023-02-28T00:10:09;102817.25;;;1.94;100.00
3206;BME280;1615;53.602;11.418;2023-02-28T00:12:36;102813.72;;;1.94;100.00
3206;BME280;1615;53.602;11.418;2023-02-28T00:15:05;102824.53;;;1.94;100.00
3206;BME280;1615;53.602;11.418;2023-02-28T00:17:30;102824.38;;;1.95;100.00
3206;BME280;1615;53.602;11.418;2023-02-28T00:19:59;102823.50;;;1.95;100.00
3206;BME280;1615;53.602;11.418;2023-02-28T00:22:38;102822.66;;;1.94;100.00
3206;BME280;1615;53.602;11.418;2023-02-28T00:25:04;102825.56;;;1.93;100.00
3206;BME280;1615;53.602;11.418;2023-02-28T00:27:30;102758.59;;;1.51;100.00
3206;BME280;1615;53.602;11.418;2023-02-28T00:29:55;102764.78;;;1.60;100.00
3206;BME280;1615;53.602;11.418;2023-02-28T00:32:21;102828.00;;;1.88;100.00
3206;BME280;1615;53.602;11.418;2023-02-28T00:34:46;102828.81;;;1.88;100.00
3206;BME280;1615;53.602;11.418;2023-02-28T00:37:12;102835.25;;;1.87;100.00
3206;BME280;1615;53.602;11.418;2023-02-28T00:39:38;102820.44;;;1.83;100.00
3206;BME280;1615;53.602;11.418;2023-02-28T00:42:05;102784.72;;;1.59;100.00
3206;BME280;1615;53.602;11.418;2023-02-28T00:44:31;102828.75;;;1.82;100.00
3206;BME280;1615;53.602;11.418;2023-02-28T00:46:57;102826.88;;;1.82;100.00
3206;BME280;1615;53.602;11.418;2023-02-28T00:49:23;102822.50;;;1.81;100.00
3206;BME280;1615;53.602;11.418;2023-02-28T00:51:48;102829.97;;;1.79;100.00
3206;BME280;1615;53.602;11.418;2023-02-28T00:54:14;102829.50;;;1.76;100.00
3206;BME280;1615;53.602;11.418;2023-02-28T00:56:39;102836.66;;;1.69;100.00
3206;BME280;1615;53.602;11.418;2023-02-28T00:59:05;102781.81;;;1.31;100.00
3206;BME280;1615;53.602;11.418;2023-02-28T01:01:30;102834.31;;;1.66;100.00
3206;BME280;1615;53.602;11.418;2023-02-28T01:03:56;102812.47;;;1.53;100.00
3206;BME280;1615;53.602;11.418;2023-02-28T01:06:21;102840.94;;;1.63;100.00
3206;BME280;1615;53.602;11.418;2023-02-28T01:08:46;102851.94;;;1.62;100.00
3206;BME280;1615;53.602;11.418;2023-02-28T01:11:14;102832.16;;;1.61;100.00
3206;BME280;1615;53.602;11.418;2023-02-28T01:13:41;102833.00;;;1.62;100.00
3206;BME280;1615;53.602;11.418;2023-02-28T01:16:07;102835.41;;;1.57;100.00
3206;BME280;1615;53.602;11.418;2023-02-28T01:18:32;102830.38;;;1.54;100.00
3206;BME280;1615;53.602;11.418;2023-02-28T01:20:58;102836.97;;;1.51;100.00
3206;BME280;1615;53.602;11.418;2023-02-28T01:23:27;102834.09;;;1.53;100.00
3206;BME280;1615;53.602;11.418;2023-02-28T01:25:53;102832.06;;;1.55;100.00
3206;BME280;1615;53.602;11.418;2023-02-28T01:28:18;102812.28;;;1.40;100.00
3206;BME280;1615;53.602;11.418;2023-02-28T01:30:47;102797.91;;;1.25;100.00
3206;BME280;1615;53.602;11.418;2023-02-28T01:33:13;102823.81;;;1.34;100.00
3206;BME280;1615;53.602;11.418;2023-02-28T01:35:38;102835.41;;;1.42;100.00
3206;BME280;1615;53.602;11.418;2023-02-28T01:38:04;102836.59;;;1.40;100.00
3206;BME280;1615;53.602;11.418;2023-02-28T01:40:29;102833.91;;;1.40;100.00
3206;BME280;1615;53.602;11.418;2023-02-28T01:42:54;102842.66;;;1.42;100.00
3206;BME280;1615;53.602;11.418;2023-02-28T01:47:56;102840.69;;;1.36;100.00
3206;BME280;1615;53.602;11.418;2023-02-28T01:50:25;102842.34;;;1.37;100.00
3206;BME280;1615;53.602;11.418;2023-02-28T01:52:54;102786.31;;;1.02;100.00
3206;BME280;1615;53.602;11.418;2023-02-28T01:55:22;102839.53;;;1.30;100.00
3206;BME280;1615;53.602;11.418;2023-02-28T01:57:52;102833.97;;;1.32;100.00
3206;BME280;1615;53.602;11.418;2023-02-28T02:00:22;102831.72;;;1.35;100.00
3206;BME280;1615;53.602;11.418;2023-02-28T02:02:51;102835.56;;;1.41;100.00
3206;BME280;1615;53.602;11.418;2023-02-28T02:05:20;102836.31;;;1.35;100.00
3206;BME280;1615;53.602;11.418;2023-02-28T02:07:51;102829.22;;;1.34;100.00
3206;BME280;1615;53.602;11.418;2023-02-28T02:10:20;102846.66;;;1.31;100.00
3206;BME280;1615;53.602;11.418;2023-02-28T02:13:05;102833.38;;;1.22;100.00
3206;BME280;1615;53.602;11.418;2023-02-28T02:15:44;102837.09;;;1.21;100.00
3206;BME280;1615;53.602;11.418;2023-02-28T02:37:40;102829.72;;;1.15;100.00
3206;BME280;1615;53.602;11.418;2023-02-28T02:40:14;102828.22;;;1.12;100.00
3206;BME280;1615;53.602;11.418;2023-02-28T02:42:48;102824.69;;;1.12;100.00
3206;BME280;1615;53.602;11.418;2023-02-28T02:45:23;102828.41;;;1.11;100.00
3206;BME280;1615;53.602;11.418;2023-02-28T02:47:50;102826.25;;;1.06;100.00
3206;BME280;1615;53.602;11.418;2023-02-28T02:50:21;102827.44;;;1.04;100.00
3206;BME280;1615;53.602;11.418;2023-02-28T02:52:52;102769.84;;;0.66;100.00
3206;BME280;1615;53.602;11.418;2023-02-28T02:55:20;102832.00;;;1.03;100.00
3206;BME280;1615;53.602;11.418;2023-02-28T02:57:51;102834.91;;;1.02;100.00
3206;BME280;1615;53.602;11.418;2023-02-28T03:00:20;102836.56;;;1.03;100.00
3206;BME280;1615;53.602;11.418;2023-02-28T03:02:48;102828.31;;;1.04;100.00
3206;BME280;1615;53.602;11.418;2023-02-28T03:05:19;102836.56;;;1.03;100.00
3206;BME280;1615;53.602;11.418;2023-02-28T03:07:47;102826.59;;;1.03;100.00
3206;BME280;1615;53.602;11.418;2023-02-28T03:10:30;102833.88;;;1.03;100.00
3206;BME280;1615;53.602;11.418;2023-02-28T03:13:36;102835.38;;;1.05;100.00
3206;BME280;1615;53.602;11.418;2023-02-28T03:24:50;102833.19;;;1.01;100.00
3206;BME280;1615;53.602;11.418;2023-02-28T03:27:38;102842.31;;;1.00;100.00
3206;BME280;1615;53.602;11.418;2023-02-28T03:30:24;102842.31;;;1.00;100.00
3206;BME280;1615;53.602;11.418;2023-02-28T03:32:59;102830.56;;;0.93;100.00
3206;BME280;1615;53.602;11.418;2023-02-28T03:35:31;102842.31;;;1.00;100.00
3206;BME280;1615;53.602;11.418;2023-02-28T03:38:07;102839.63;;;1.00;100.00
3206;BME280;1615;53.602;11.418;2023-02-28T03:40:37;102838.59;;;1.01;100.00
3206;BME280;1615;53.602;11.418;2023-02-28T03:43:10;102839.78;;;0.98;100.00
3206;BME280;1615;53.602;11.418;2023-02-28T03:45:39;102823.19;;;0.87;100.00
3206;BME280;1615;53.602;11.418;2023-02-28T03:48:13;102841.69;;;0.98;100.00
3206;BME280;1615;53.602;11.418;2023-02-28T03:50:43;102842.31;;;1.00;100.00
3206;BME280;1615;53.602;11.418;2023-02-28T03:53:19;102847.72;;;1.00;100.00
3206;BME280;1615;53.602;11.418;2023-02-28T03:55:54;102845.41;;;0.97;100.00
3206;BME280;1615;53.602;11.418;2023-02-28T03:58:34;102841.03;;;0.96;100.00
3206;BME280;1615;53.602;11.418;2023-02-28T04:01:25;102810.84;;;0.70;100.00
3206;BME280;1615;53.602;11.418;2023-02-28T04:03:52;102846.13;;;0.91;100.00
3206;BME280;1615;53.602;11.418;2023-02-28T04:06:20;102820.06;;;0.75;100.00
3206;BME280;1615;53.602;11.418;2023-02-28T04:08:46;102847.50;;;0.87;100.00
3206;BME280;1615;53.602;11.418;2023-02-28T04:11:34;102844.31;;;0.83;100.00
3206;BME280;1615;53.602;11.418;2023-02-28T04:14:01;102842.44;;;0.84;100.00
3206;BME280;1615;53.602;11.418;2023-02-28T04:16:27;102847.00;;;0.83;100.00
3206;BME280;1615;53.602;11.418;2023-02-28T04:18:53;102859.00;;;0.81;100.00
3206;BME280;1615;53.602;11.418;2023-02-28T04:21:18;102840.28;;;0.79;100.00
3206;BME280;1615;53.602;11.418;2023-02-28T04:23:46;102848.56;;;0.78;100.00
3206;BME280;1615;53.602;11.418;2023-02-28T04:26:11;102833.22;;;0.78;100.00
3206;BME280;1615;53.602;11.418;2023-02-28T04:28:38;102839.81;;;0.76;100.00
3206;BME280;1615;53.602;11.418;2023-02-28T04:31:05;102847.22;;;0.74;100.00
3206;BME280;1615;53.602;11.418;2023-02-28T04:33:31;102716.84;;;-0.02;100.00
3206;BME280;1615;53.602;11.418;2023-02-28T04:36:01;102779.19;;;0.33;100.00
3206;BME280;1615;53.602;11.418;2023-02-28T04:38:28;102836.31;;;0.67;100.00
3206;BME280;1615;53.602;11.418;2023-02-28T04:40:57;102818.84;;;0.55;100.00
3206;BME280;1615;53.602;11.418;2023-02-28T04:43:22;102791.47;;;0.36;100.00
3206;BME280;1615;53.602;11.418;2023-02-28T04:45:48;102843.56;;;0.67;100.00
3206;BME280;1615;53.602;11.418;2023-02-28T04:48:13;102846.63;;;0.64;100.00
3206;BME280;1615;53.602;11.418;2023-02-28T04:50:38;102851.34;;;0.62;100.00
3206;BME280;1615;53.602;11.418;2023-02-28T04:53:04;102855.06;;;0.61;100.00
3206;BME280;1615;53.602;11.418;2023-02-28T04:55:29;102857.78;;;0.61;100.00
3206;BME280;1615;53.602;11.418;2023-02-28T04:57:54;102854.75;;;0.64;100.00
3206;BME280;1615;53.602;11.418;2023-02-28T05:00:20;102781.44;;;0.22;100.00
3206;BME280;1615;53.602;11.418;2023-02-28T05:02:45;102859.44;;;0.62;100.00
3206;BME280;1615;53.602;11.418;2023-02-28T05:05:10;102863.50;;;0.58;100.00
3206;BME280;1615;53.602;11.418;2023-02-28T05:07:41;102860.88;;;0.50;100.00
3206;BME280;1615;53.602;11.418;2023-02-28T05:10:07;102836.63;;;0.42;100.00
3206;BME280;1615;53.602;11.418;2023-02-28T05:12:32;102856.97;;;0.52;100.00
3206;BME280;1615;53.602;11.418;2023-02-28T05:14:58;102851.09;;;0.49;100.00
3206;BME280;1615;53.602;11.418;2023-02-28T05:17:23;102687.13;;;-0.55;100.00
3206;BME280;1615;53.602;11.418;2023-02-28T05:19:48;102861.22;;;0.47;100.00
3206;BME280;1615;53.602;11.418;2023-02-28T05:22:15;102859.53;;;0.46;100.00
3206;BME280;1615;53.602;11.418;2023-02-28T05:24:42;102863.81;;;0.32;100.00
3206;BME280;1615;53.602;11.418;2023-02-28T05:27:07;102863.16;;;0.30;100.00
3206;BME280;1615;53.602;11.418;2023-02-28T05:29:33;102868.38;;;0.32;100.00
3206;BME280;1615;53.602;11.418;2023-02-28T05:31:59;102861.59;;;0.36;100.00
3206;BME280;1615;53.602;11.418;2023-02-28T05:34:24;102732.03;;;-0.47;100.00
3206;BME280;1615;53.602;11.418;2023-02-28T05:36:49;102865.72;;;0.24;100.00
3206;BME280;1615;53.602;11.418;2023-02-28T05:39:15;102865.88;;;0.22;100.00
3206;BME280;1615;53.602;11.418;2023-02-28T05:41:41;102867.38;;;0.25;100.00
3206;BME280;1615;53.602;11.418;2023-02-28T05:44:07;102864.69;;;0.25;100.00
3206;BME280;1615;53.602;11.418;2023-02-28T05:46:32;102867.38;;;0.25;100.00
3206;BME280;1615;53.602;11.418;2023-02-28T05:48:57;102872.78;;;0.25;100.00
3206;BME280;1615;53.602;11.418;2023-02-28T05:51:25;102867.75;;;0.22;100.00
3206;BME280;1615;53.602;11.418;2023-02-28T05:53:50;102863.97;;;0.31;100.00
3206;BME280;1615;53.602;11.418;2023-02-28T05:56:16;102878.63;;;0.36;100.00
3206;BME280;1615;53.602;11.418;2023-02-28T05:58:41;102871.38;;;0.37;100.00
3206;BME280;1615;53.602;11.418;2023-02-28T06:01:24;102883.94;;;0.22;100.00
3206;BME280;1615;53.602;11.418;2023-02-28T06:03:51;102887.97;;;0.18;100.00
3206;BME280;1615;53.602;11.418;2023-02-28T06:06:16;102882.22;;;0.21;100.00
3206;BME280;1615;53.602;11.418;2023-02-28T06:08:42;102884.91;;;0.29;100.00
3206;BME280;1615;53.602;11.418;2023-02-28T06:11:08;102912.84;;;0.36;100.00
3206;BME280;1615;53.602;11.418;2023-02-28T06:13:34;102756.44;;;-0.41;100.00
3206;BME280;1615;53.602;11.418;2023-02-28T06:16:02;102885.59;;;0.23;100.00
3206;BME280;1615;53.602;11.418;2023-02-28T06:18:27;102889.66;;;0.19;100.00
3206;BME280;1615;53.602;11.418;2023-02-28T06:20:53;102886.63;;;0.22;100.00
3206;BME280;1615;53.602;11.418;2023-02-28T06:23:20;102887.06;;;0.33;100.00
3206;BME280;1615;53.602;11.418;2023-02-28T06:25:46;102862.69;;;0.19;100.00
3206;BME280;1615;53.602;11.418;2023-02-28T06:28:11;102898.31;;;0.45;100.00
3206;BME280;1615;53.602;11.418;2023-02-28T06:30:37;102904.03;;;0.50;100.00
3206;BME280;1615;53.602;11.418;2023-02-28T06:33:03;102877.09;;;0.42;100.00
3206;BME280;1615;53.602;11.418;2023-02-28T06:35:28;102903.66;;;0.53;100.00
3206;BME280;1615;53.602;11.418;2023-02-28T06:37:54;102903.00;;;0.59;100.00
3206;BME280;1615;53.602;11.418;2023-02-28T06:40:20;102884.50;;;0.48;100.00
3206;BME280;1615;53.602;11.418;2023-02-28T06:42:45;102887.84;;;0.50;100.00
3206;BME280;1615;53.602;11.418;2023-02-28T06:45:11;102915.78;;;0.65;100.00
3206;BME280;1615;53.602;11.418;2023-02-28T06:47:38;102925.88;;;0.63;100.00
3206;BME280;1615;53.602;11.418;2023-02-28T06:50:04;102909.06;;;0.53;100.00
3206;BME280;1615;53.602;11.418;2023-02-28T06:52:30;102890.22;;;0.45;100.00
3206;BME280;1615;53.602;11.418;2023-02-28T06:54:55;102910.56;;;0.63;100.00
3206;BME280;1615;53.602;11.418;2023-02-28T06:57:31;102915.59;;;0.66;100.00
3206;BME280;1615;53.602;11.418;2023-02-28T06:59:58;102912.06;;;0.66;100.00
3206;BME280;1615;53.602;11.418;2023-02-28T07:02:24;102924.91;;;0.64;100.00
3206;BME280;1615;53.602;11.418;2023-02-28T07:04:49;102912.09;;;0.58;100.00
3206;BME280;1615;53.602;11.418;2023-02-28T07:07:14;102914.75;;;0.66;100.00
3206;BME280;1615;53.602;11.418;2023-02-28T07:09:40;102913.34;;;0.78;100.00
3206;BME280;1615;53.602;11.418;2023-02-28T07:12:05;102846.03;;;0.46;100.00
3206;BME280;1615;53.602;11.418;2023-02-28T07:14:30;102921.31;;;1.02;100.00
3206;BME280;1615;53.602;11.418;2023-02-28T07:16:56;102931.50;;;1.14;100.00
3206;BME280;1615;53.602;11.418;2023-02-28T07:19:22;102927.34;;;1.12;100.00
3206;BME280;1615;53.602;11.418;2023-02-28T07:21:47;102914.66;;;1.12;100.00
3206;BME280;1615;53.602;11.418;2023-02-28T07:24:12;102893.22;;;1.11;100.00
3206;BME280;1615;53.602;11.418;2023-02-28T07:26:40;102922.59;;;1.36;100.00
3206;BME280;1615;53.602;11.418;2023-02-28T07:29:06;102901.97;;;1.35;100.00
3206;BME280;1615;53.602;11.418;2023-02-28T07:31:31;102913.63;;;1.58;100.00
3206;BME280;1615;53.602;11.418;2023-02-28T07:33:56;102910.84;;;1.66;100.00
3206;BME280;1615;53.602;11.418;2023-02-28T07:36:22;102911.50;;;1.68;100.00
3206;BME280;1615;53.602;11.418;2023-02-28T07:38:50;102915.22;;;1.67;100.00
3206;BME280;1615;53.602;11.418;2023-02-28T07:41:17;102788.78;;;1.03;100.00
3206;BME280;1615;53.602;11.418;2023-02-28T07:43:42;102888.97;;;1.76;100.00
3206;BME280;1615;53.602;11.418;2023-02-28T07:46:11;102881.34;;;1.79;100.00
3206;BME280;1615;53.602;11.418;2023-02-28T07:48:37;102809.13;;;1.51;100.00
3206;BME280;1615;53.602;11.418;2023-02-28T07:51:03;102919.22;;;2.23;100.00
3206;BME280;1615;53.602;11.418;2023-02-28T07:53:29;102912.03;;;2.15;100.00
3206;BME280;1615;53.602;11.418;2023-02-28T07:55:58;102892.44;;;1.99;100.00
3206;BME280;1615;53.602;11.418;2023-02-28T07:58:27;102921.56;;;2.11;100.00
3206;BME280;1615;53.602;11.418;2023-02-28T08:00:53;102918.66;;;2.13;100.00
3206;BME280;1615;53.602;11.418;2023-02-28T08:03:19;102919.97;;;2.17;100.00
3206;BME280;1615;53.602;11.418;2023-02-28T08:05:45;102874.53;;;1.98;100.00
3206;BME280;1615;53.602;11.418;2023-02-28T08:08:11;102921.84;;;2.31;100.00
3206;BME280;1615;53.602;11.418;2023-02-28T08:10:36;102914.56;;;2.46;100.00
3206;BME280;1615;53.602;11.418;2023-02-28T08:13:02;102914.56;;;2.46;100.00
3206;BME280;1615;53.602;11.418;2023-02-28T08:15:27;102908.69;;;2.57;100.00
3206;BME280;1615;53.602;11.418;2023-02-28T08:17:52;102891.69;;;2.48;100.00
3206;BME280;1615;53.602;11.418;2023-02-28T08:20:18;102889.06;;;2.55;100.00
3206;BME280;1615;53.602;11.418;2023-02-28T08:22:43;102909.50;;;2.72;100.00
3206;BME280;1615;53.602;11.418;2023-02-28T08:25:09;102915.06;;;2.85;100.00
3206;BME280;1615;53.602;11.418;2023-02-28T08:27:35;102907.84;;;2.92;100.00
3206;BME280;1615;53.602;11.418;2023-02-28T08:30:01;102916.91;;;2.99;100.00
3206;BME280;1615;53.602;11.418;2023-02-28T08:32:28;102911.34;;;3.07;100.00
3206;BME280;1615;53.602;11.418;2023-02-28T08:34:53;102891.16;;;3.09;100.00
3206;BME280;1615;53.602;11.418;2023-02-28T08:37:19;102906.22;;;3.33;100.00
3206;BME280;1615;53.602;11.418;2023-02-28T08:39:45;102913.97;;;3.36;100.00
3206;BME280;1615;53.602;11.418;2023-02-28T08:42:10;102905.88;;;3.42;100.00
3206;BME280;1615;53.602;11.418;2023-02-28T08:44:36;102907.69;;;3.56;100.00
3206;BME280;1615;53.602;11.418;2023-02-28T08:47:01;102914.94;;;3.77;100.00
3206;BME280;1615;53.602;11.418;2023-02-28T08:49:26;102913.44;;;3.95;100.00
3206;BME280;1615;53.602;11.418;2023-02-28T08:51:52;102905.22;;;3.89;100.00
3206;BME280;1615;53.602;11.418;2023-02-28T08:54:17;102915.41;;;4.08;100.00
3206;BME280;1615;53.602;11.418;2023-02-28T08:56:45;102779.44;;;3.35;100.00
3206;BME280;1615;53.602;11.418;2023-02-28T08:59:12;102912.19;;;4.25;100.00
3206;BME280;1615;53.602;11.418;2023-02-28T09:01:37;102913.47;;;4.29;100.00
3206;BME280;1615;53.602;11.418;2023-02-28T09:04:03;102921.00;;;4.34;100.00
3206;BME280;1615;53.602;11.418;2023-02-28T09:06:28;102918.53;;;4.39;100.00
3206;BME280;1615;53.602;11.418;2023-02-28T09:08:57;102920.25;;;4.46;100.00
3206;BME280;1615;53.602;11.418;2023-02-28T09:11:26;102913.00;;;4.60;100.00
3206;BME280;1615;53.602;11.418;2023-02-28T09:13:51;102917.44;;;4.67;100.00
3206;BME280;1615;53.602;11.418;2023-02-28T09:16:17;102918.28;;;4.74;100.00
3206;BME280;1615;53.602;11.418;2023-02-28T09:18:43;102925.47;;;4.88;100.00
3206;BME280;1615;53.602;11.418;2023-02-28T09:21:11;102944.72;;;5.00;100.00
3206;BME280;1615;53.602;11.418;2023-02-28T09:23:40;102750.72;;;4.08;100.00
3206;BME280;1615;53.602;11.418;2023-02-28T09:26:05;102927.03;;;5.23;100.00
3206;BME280;1615;53.602;11.418;2023-02-28T09:28:31;102932.66;;;5.22;100.00
3206;BME280;1615;53.602;11.418;2023-02-28T09:30:56;102904.84;;;5.07;100.00
3206;BME280;1615;53.602;11.418;2023-02-28T09:33:25;102925.19;;;5.37;100.00
3206;BME280;1615;53.602;11.418;2023-02-28T09:35:58;102932.88;;;5.14;100.00
3206;BME280;1615;53.602;11.418;2023-02-28T09:38:23;102919.75;;;5.37;100.00
3206;BME280;1615;53.602;11.418;2023-02-28T09:40:51;102925.22;;;5.50;100.00
3206;BME280;1615;53.602;11.418;2023-02-28T09:43:20;102878.09;;;5.30;100.00
3206;BME280;1615;53.602;11.418;2023-02-28T09:45:51;102903.03;;;5.53;100.00
3206;BME280;1615;53.602;11.418;2023-02-28T09:48:21;102932.75;;;5.74;100.00
3206;BME280;1615;53.602;11.418;2023-02-28T09:50:51;102885.25;;;5.63;100.00
3206;BME280;1615;53.602;11.418;2023-02-28T09:53:34;102926.53;;;5.93;100.00
3206;BME280;1615;53.602;11.418;2023-02-28T09:56:21;102761.16;;;4.84;100.00
3206;BME280;1615;53.602;11.418;2023-02-28T09:59:15;102920.00;;;6.07;100.00
3206;BME280;1615;53.602;11.418;2023-02-28T10:04:46;102917.91;;;6.22;100.00
3206;BME280;1615;53.602;11.418;2023-02-28T10:09:55;102935.47;;;6.39;100.00
3206;BME280;1615;53.602;11.418;2023-02-28T10:12:24;102916.78;;;6.49;100.00
3206;BME280;1615;53.602;11.418;2023-02-28T10:14:54;102911.53;;;6.60;100.00
3206;BME280;1615;53.602;11.418;2023-02-28T10:17:36;102914.25;;;6.60;100.00
3206;BME280;1615;53.602;11.418;2023-02-28T10:20:16;102913.16;;;6.68;100.00
3206;BME280;1615;53.602;11.418;2023-02-28T10:22:59;102910.59;;;6.79;100.00
3206;BME280;1615;53.602;11.418;2023-02-28T10:25:32;102909.50;;;6.87;100.00
3206;BME280;1615;53.602;11.418;2023-02-28T10:30:32;102904.44;;;6.97;100.00
3206;BME280;1615;53.602;11.418;2023-02-28T10:32:57;102917.84;;;6.98;100.00
3206;BME280;1615;53.602;11.418;2023-02-28T10:35:25;102913.19;;;7.05;100.00
3206;BME280;1615;53.602;11.418;2023-02-28T10:37:55;102912.38;;;7.05;100.00
3206;BME280;1615;53.602;11.418;2023-02-28T10:45:39;102916.31;;;7.09;100.00
3206;BME280;1615;53.602;11.418;2023-02-28T10:50:53;102912.28;;;7.24;100.00
3206;BME280;1615;53.602;11.418;2023-02-28T11:01:16;102918.22;;;7.15;100.00
3206;BME280;1615;53.602;11.418;2023-02-28T11:03:42;102786.44;;;6.46;100.00
3206;BME280;1615;53.602;11.418;2023-02-28T11:06:22;102915.47;;;7.15;100.00
3206;BME280;1615;53.602;11.418;2023-02-28T11:09:22;102898.44;;;7.19;100.00
3206;BME280;1615;53.602;11.418;2023-02-28T11:11:49;102910.09;;;7.33;100.00
3206;BME280;1615;53.602;11.418;2023-02-28T11:16:44;102882.03;;;7.26;100.00
3206;BME280;1615;53.602;11.418;2023-02-28T11:19:22;102906.72;;;7.37;100.00
3206;BME280;1615;53.602;11.418;2023-02-28T11:21:54;102902.47;;;7.48;100.00
3206;BME280;1615;53.602;11.418;2023-02-28T11:24:24;102904.72;;;7.51;100.00
3206;BME280;1615;53.602;11.418;2023-02-28T11:26:52;102831.13;;;7.13;100.00
3206;BME280;1615;53.602;11.418;2023-02-28T11:29:19;102894.63;;;7.58;100.00
3206;BME280;1615;53.602;11.418;2023-02-28T11:32:18;102899.19;;;7.64;100.00
3206;BME280;1615;53.602;11.418;2023-02-28T11:34:45;102749.53;;;6.81;100.00
3206;BME280;1615;53.602;11.418;2023-02-28T11:37:13;102889.03;;;7.71;100.00
3206;BME280;1615;53.602;11.418;2023-02-28T11:39:40;102889.66;;;7.73;98.44
3206;BME280;1615;53.602;11.418;2023-02-28T11:48:04;102889.09;;;7.89;95.01
3206;BME280;1615;53.602;11.418;2023-02-28T11:56:52;102895.19;;;7.91;91.06
3206;BME280;1615;53.602;11.418;2023-02-28T11:59:35;102872.69;;;7.89;91.24
3206;BME280;1615;53.602;11.418;2023-02-28T12:11:12;102852.75;;;7.88;90.82
3206;BME280;1615;53.602;11.418;2023-02-28T12:13:56;102852.06;;;7.93;91.82
3206;BME280;1615;53.602;11.418;2023-02-28T12:24:42;102832.41;;;7.84;91.83
3206;BME280;1615;53.602;11.418;2023-02-28T12:27:17;102798.84;;;7.84;90.69
3206;BME280;1615;53.602;11.418;2023-02-28T12:29:52;102823.66;;;8.00;90.60
3206;BME280;1615;53.602;11.418;2023-02-28T12:32:47;102814.63;;;8.00;89.76
3206;BME280;1615;53.602;11.418;2023-02-28T12:35:17;102839.22;;;8.00;89.80
3206;BME280;1615;53.602;11.418;2023-02-28T12:38:10;102819.19;;;8.06;89.81
3206;BME280;1615;53.602;11.418;2023-02-28T12:40:52;102818.28;;;8.12;89.36
3206;BME280;1615;53.602;11.418;2023-02-28T12:43:21;102806.13;;;8.08;88.04
3206;BME280;1615;53.602;11.418;2023-02-28T12:45:54;102695.88;;;7.48;88.65
3206;BME280;1615;53.602;11.418;2023-02-28T12:48:27;102663.66;;;7.39;87.72
3206;BME280;1615;53.602;11.418;2023-02-28T12:50:54;102788.81;;;8.14;87.56
3206;BME280;1615;53.602;11.418;2023-02-28T12:53:51;102792.78;;;8.18;85.74
3206;BME280;1615;53.602;11.418;2023-02-28T12:56:35;102785.03;;;8.15;84.48
3206;BME280;1615;53.602;11.418;2023-02-28T12:59:21;102790.03;;;8.18;84.83
3206;BME280;1615;53.602;11.418;2023-02-28T13:10:43;102766.97;;;8.14;85.86
3206;BME280;1615;53.602;11.418;2023-02-28T13:13:15;102772.75;;;8.24;86.95
3206;BME280;1615;53.602;11.418;2023-02-28T13:15:57;102794.00;;;8.40;82.67
3206;BME280;1615;53.602;11.418;2023-02-28T13:18:33;102797.81;;;8.39;82.11
3206;BME280;1615;53.602;11.418;2023-02-28T13:21:01;102773.84;;;8.23;81.50
3206;BME280;1615;53.602;11.418;2023-02-28T13:26:16;102795.28;;;8.37;83.09
3206;BME280;1615;53.602;11.418;2023-02-28T13:31:16;102787.78;;;8.33;83.43
3206;BME280;1615;53.602;11.418;2023-02-28T13:38:41;102779.13;;;8.18;80.50
3206;BME280;1615;53.602;11.418;2023-02-28T13:46:27;102790.81;;;8.07;71.81
3206;BME280;1615;53.602;11.418;2023-02-28T13:48:53;102795.50;;;8.00;69.57
3206;BME280;1615;53.602;11.418;2023-02-28T13:51:45;102792.63;;;7.95;62.03
3206;BME280;1615;53.602;11.418;2023-02-28T14:05:17;102783.22;;;7.91;59.08
3206;BME280;1615;53.602;11.418;2023-02-28T14:07:50;102792.00;;;7.93;58.29
3206;BME280;1615;53.602;11.418;2023-02-28T14:10:27;102778.50;;;7.80;57.12
3206;BME280;1615;53.602;11.418;2023-02-28T14:15:44;102790.53;;;7.72;56.56
3206;BME280;1615;53.602;11.418;2023-02-28T14:18:29;102789.53;;;7.67;56.27
3206;BME280;1615;53.602;11.418;2023-02-28T14:21:12;102787.88;;;7.66;53.89
3206;BME280;1615;53.602;11.418;2023-02-28T14:23:52;102779.84;;;7.71;53.58
3206;BME280;1615;53.602;11.418;2023-02-28T14:31:58;102785.84;;;7.79;54.58
3206;BME280;1615;53.602;11.418;2023-02-28T14:37:13;102668.59;;;7.06;54.02
3206;BME280;1615;53.602;11.418;2023-02-28T14:39:41;102718.28;;;7.32;54.04
3206;BME280;1615;53.602;11.418;2023-02-28T14:42:37;102779.25;;;7.69;55.10
3206;BME280;1615;53.602;11.418;2023-02-28T14:45:03;102783.84;;;7.68;55.67
3206;BME280;1615;53.602;11.418;2023-02-28T14:47:33;102770.38;;;7.73;56.39
3206;BME280;1615;53.602;11.418;2023-02-28T14:50:00;102718.69;;;7.36;56.09
3206;BME280;1615;53.602;11.418;2023-02-28T14:52:31;102763.34;;;7.59;56.99
3206;BME280;1615;53.602;11.418;2023-02-28T14:54:59;102762.88;;;7.69;57.22
3206;BME280;1615;53.602;11.418;2023-02-28T15:02:35;102769.84;;;7.83;59.36
3206;BME280;1615;53.602;11.418;2023-02-28T15:07:39;102709.63;;;7.60;60.62
3206;BME280;1615;53.602;11.418;2023-02-28T15:12:49;102750.94;;;7.63;63.36
3206;BME280;1615;53.602;11.418;2023-02-28T15:15:17;102733.44;;;7.71;62.81
3206;BME280;1615;53.602;11.418;2023-02-28T15:17:45;102751.47;;;7.72;61.96
3206;BME280;1615;53.602;11.418;2023-02-28T15:20:13;102729.84;;;7.70;61.97
3206;BME280;1615;53.602;11.418;2023-02-28T15:22:39;102616.31;;;6.91;61.01
3206;BME280;1615;53.602;11.418;2023-02-28T15:25:05;102712.66;;;7.52;61.03
3206;BME280;1615;53.602;11.418;2023-02-28T15:27:33;102728.72;;;7.60;59.12
3206;BME280;1615;53.602;11.418;2023-02-28T15:30:06;102727.72;;;7.54;60.35
3206;BME280;1615;53.602;11.418;2023-02-28T15:32:40;102734.50;;;7.52;60.34
3206;BME280;1615;53.602;11.418;2023-02-28T15:38:00;102731.50;;;7.53;59.90
3206;BME280;1615;53.602;11.418;2023-02-28T15:43:13;102727.34;;;7.51;60.76